Terminal Aerodrome Forecast
Issued by NWS

Home | Current Version | Previous Version | Text Only | Print | Product List | Glossary On
Versions: 1 2 3 4 5 6 7 8 9 10 11 12 13 14 15 16
000
FTUS42 KMLB 222327
TAFLEE
TAF
KLEE 222327Z 2300/2324 04008KT P6SM SCT025
     FM230600 03006KT P6SM SCT015 BKN025
      TEMPO 2309/2312 BKN006 BKN015
     FM231400 09008KT P6SM SHRA SCT015 BKN025 OVC040
     FM231600 14009KT 5SM SHRA BKN025
      TEMPO 2318/2322 2SM +SHRA BKN012=

USA.gov is the U.S. government's official web portal to all federal, state and local government web resources and services.